sensor_id;sensor_type;location;lat;lon;timestamp;P1;durP1;ratioP1;P2;durP2;ratioP2
59388;SDS011;51830;45.202;19.720;2023-08-31T00:00:09;5.95;;;1.92;;
59388;SDS011;51830;45.202;19.720;2023-08-31T00:02:36;8.13;;;2.42;;
59388;SDS011;51830;45.202;19.720;2023-08-31T00:05:02;5.75;;;1.95;;
59388;SDS011;51830;45.202;19.720;2023-08-31T00:07:29;9.02;;;2.38;;
59388;SDS011;51830;45.202;19.720;2023-08-31T00:09:55;8.68;;;2.28;;
59388;SDS011;51830;45.202;19.720;2023-08-31T00:12:21;4.97;;;1.92;;
59388;SDS011;51830;45.202;19.720;2023-08-31T00:14:49;6.72;;;1.88;;
59388;SDS011;51830;45.202;19.720;2023-08-31T00:17:16;6.15;;;1.88;;
59388;SDS011;51830;45.202;19.720;2023-08-31T00:19:43;6.07;;;2.00;;
59388;SDS011;51830;45.202;19.720;2023-08-31T00:22:09;4.50;;;1.60;;
59388;SDS011;51830;45.202;19.720;2023-08-31T00:24:36;3.75;;;1.50;;
59388;SDS011;51830;45.202;19.720;2023-08-31T00:27:03;6.40;;;1.70;;
59388;SDS011;51830;45.202;19.720;2023-08-31T00:29:30;6.43;;;2.05;;
59388;SDS011;51830;45.202;19.720;2023-08-31T00:31:56;4.88;;;1.95;;
59388;SDS011;51830;45.202;19.720;2023-08-31T00:34:23;4.97;;;1.70;;
59388;SDS011;51830;45.202;19.720;2023-08-31T00:36:49;5.15;;;1.90;;
59388;SDS011;51830;45.202;19.720;2023-08-31T00:39:15;5.93;;;1.85;;
59388;SDS011;51830;45.202;19.720;2023-08-31T00:41:46;5.65;;;1.83;;
59388;SDS011;51830;45.202;19.720;2023-08-31T00:44:12;3.45;;;1.52;;
59388;SDS011;51830;45.202;19.720;2023-08-31T00:46:40;6.57;;;1.73;;
59388;SDS011;51830;45.202;19.720;2023-08-31T00:49:07;5.65;;;1.77;;
59388;SDS011;51830;45.202;19.720;2023-08-31T00:51:34;6.03;;;1.65;;
59388;SDS011;51830;45.202;19.720;2023-08-31T00:54:00;4.30;;;1.55;;
59388;SDS011;51830;45.202;19.720;2023-08-31T00:56:26;6.57;;;2.08;;
59388;SDS011;51830;45.202;19.720;2023-08-31T00:58:53;4.80;;;1.70;;
59388;SDS011;51830;45.202;19.720;2023-08-31T01:06:25;5.75;;;1.77;;
59388;SDS011;51830;45.202;19.720;2023-08-31T01:08:58;3.97;;;1.42;;
59388;SDS011;51830;45.202;19.720;2023-08-31T01:11:34;3.03;;;1.17;;
59388;SDS011;51830;45.202;19.720;2023-08-31T01:14:11;5.55;;;1.60;;
59388;SDS011;51830;45.202;19.720;2023-08-31T01:16:39;5.00;;;1.75;;
59388;SDS011;51830;45.202;19.720;2023-08-31T01:19:17;3.70;;;1.38;;
59388;SDS011;51830;45.202;19.720;2023-08-31T01:21:50;2.97;;;1.42;;
59388;SDS011;51830;45.202;19.720;2023-08-31T01:24:19;4.68;;;1.70;;
59388;SDS011;51830;45.202;19.720;2023-08-31T01:26:45;4.25;;;1.70;;
59388;SDS011;51830;45.202;19.720;2023-08-31T01:29:12;5.03;;;1.27;;
59388;SDS011;51830;45.202;19.720;2023-08-31T01:31:42;3.55;;;1.60;;
59388;SDS011;51830;45.202;19.720;2023-08-31T01:34:10;6.07;;;1.88;;
59388;SDS011;51830;45.202;19.720;2023-08-31T01:36:37;6.32;;;1.63;;
59388;SDS011;51830;45.202;19.720;2023-08-31T01:39:52;2.80;;;1.38;;
59388;SDS011;51830;45.202;19.720;2023-08-31T01:41:54;4.50;;;1.73;;
59388;SDS011;51830;45.202;19.720;2023-08-31T01:44:21;5.60;;;1.85;;
59388;SDS011;51830;45.202;19.720;2023-08-31T01:46:51;3.38;;;1.48;;
59388;SDS011;51830;45.202;19.720;2023-08-31T01:49:19;6.32;;;1.83;;
59388;SDS011;51830;45.202;19.720;2023-08-31T01:51:46;4.70;;;1.67;;
59388;SDS011;51830;45.202;19.720;2023-08-31T01:54:12;7.57;;;1.83;;
59388;SDS011;51830;45.202;19.720;2023-08-31T01:56:38;6.40;;;1.63;;
59388;SDS011;51830;45.202;19.720;2023-08-31T01:59:04;5.80;;;1.90;;
59388;SDS011;51830;45.202;19.720;2023-08-31T02:01:32;9.23;;;2.00;;
59388;SDS011;51830;45.202;19.720;2023-08-31T02:03:59;3.38;;;1.35;;
59388;SDS011;51830;45.202;19.720;2023-08-31T02:06:25;3.45;;;1.38;;
59388;SDS011;51830;45.202;19.720;2023-08-31T02:08:51;4.95;;;1.67;;
59388;SDS011;51830;45.202;19.720;2023-08-31T02:11:18;7.40;;;2.00;;
59388;SDS011;51830;45.202;19.720;2023-08-31T02:13:44;4.72;;;1.60;;
59388;SDS011;51830;45.202;19.720;2023-08-31T02:16:10;4.80;;;1.73;;
59388;SDS011;51830;45.202;19.720;2023-08-31T02:18:36;5.60;;;1.77;;
59388;SDS011;51830;45.202;19.720;2023-08-31T02:21:02;3.80;;;1.67;;
59388;SDS011;51830;45.202;19.720;2023-08-31T02:23:32;6.32;;;1.80;;
59388;SDS011;51830;45.202;19.720;2023-08-31T02:25:59;5.90;;;1.85;;
59388;SDS011;51830;45.202;19.720;2023-08-31T02:28:25;6.18;;;1.80;;
59388;SDS011;51830;45.202;19.720;2023-08-31T02:30:57;4.80;;;1.63;;
59388;SDS011;51830;45.202;19.720;2023-08-31T02:33:24;6.47;;;1.77;;
59388;SDS011;51830;45.202;19.720;2023-08-31T02:35:51;4.45;;;1.70;;
59388;SDS011;51830;45.202;19.720;2023-08-31T02:38:17;5.78;;;1.88;;
59388;SDS011;51830;45.202;19.720;2023-08-31T02:40:46;4.25;;;1.75;;
59388;SDS011;51830;45.202;19.720;2023-08-31T02:43:12;6.90;;;1.90;;
59388;SDS011;51830;45.202;19.720;2023-08-31T02:45:39;9.02;;;1.95;;
59388;SDS011;51830;45.202;19.720;2023-08-31T02:48:08;6.57;;;2.17;;
59388;SDS011;51830;45.202;19.720;2023-08-31T02:50:35;3.65;;;1.48;;
59388;SDS011;51830;45.202;19.720;2023-08-31T02:53:01;7.43;;;1.85;;
59388;SDS011;51830;45.202;19.720;2023-08-31T02:55:28;6.97;;;2.00;;
59388;SDS011;51830;45.202;19.720;2023-08-31T02:57:54;7.07;;;1.80;;
59388;SDS011;51830;45.202;19.720;2023-08-31T03:00:20;7.05;;;2.00;;
59388;SDS011;51830;45.202;19.720;2023-08-31T03:02:50;5.10;;;1.80;;
59388;SDS011;51830;45.202;19.720;2023-08-31T03:05:18;7.13;;;2.13;;
59388;SDS011;51830;45.202;19.720;2023-08-31T03:07:44;5.30;;;1.70;;
59388;SDS011;51830;45.202;19.720;2023-08-31T03:10:10;7.30;;;2.20;;
59388;SDS011;51830;45.202;19.720;2023-08-31T03:12:37;4.47;;;1.58;;
59388;SDS011;51830;45.202;19.720;2023-08-31T03:15:05;4.03;;;1.80;;
59388;SDS011;51830;45.202;19.720;2023-08-31T03:17:31;7.38;;;2.10;;
59388;SDS011;51830;45.202;19.720;2023-08-31T03:19:57;4.72;;;1.80;;
59388;SDS011;51830;45.202;19.720;2023-08-31T03:22:24;7.85;;;2.10;;
59388;SDS011;51830;45.202;19.720;2023-08-31T03:24:50;8.20;;;2.08;;
59388;SDS011;51830;45.202;19.720;2023-08-31T03:27:16;8.10;;;2.03;;
59388;SDS011;51830;45.202;19.720;2023-08-31T03:29:43;5.95;;;2.03;;
59388;SDS011;51830;45.202;19.720;2023-08-31T03:32:10;6.65;;;2.10;;
59388;SDS011;51830;45.202;19.720;2023-08-31T03:34:36;6.30;;;2.05;;
59388;SDS011;51830;45.202;19.720;2023-08-31T03:37:02;8.30;;;2.22;;
59388;SDS011;51830;45.202;19.720;2023-08-31T03:39:29;5.10;;;2.03;;
59388;SDS011;51830;45.202;19.720;2023-08-31T03:41:55;5.05;;;1.90;;
59388;SDS011;51830;45.202;19.720;2023-08-31T03:44:21;6.78;;;2.13;;
59388;SDS011;51830;45.202;19.720;2023-08-31T03:46:47;9.95;;;2.35;;
59388;SDS011;51830;45.202;19.720;2023-08-31T03:49:14;7.43;;;2.13;;
59388;SDS011;51830;45.202;19.720;2023-08-31T03:51:40;4.32;;;1.95;;
59388;SDS011;51830;45.202;19.720;2023-08-31T03:54:06;6.70;;;2.20;;
59388;SDS011;51830;45.202;19.720;2023-08-31T03:56:32;6.90;;;2.20;;
59388;SDS011;51830;45.202;19.720;2023-08-31T03:58:59;9.05;;;2.50;;
59388;SDS011;51830;45.202;19.720;2023-08-31T04:01:25;7.70;;;2.25;;
59388;SDS011;51830;45.202;19.720;2023-08-31T04:03:51;8.20;;;2.35;;
59388;SDS011;51830;45.202;19.720;2023-08-31T04:06:17;8.35;;;2.30;;
59388;SDS011;51830;45.202;19.720;2023-08-31T04:08:44;6.88;;;2.15;;
59388;SDS011;51830;45.202;19.720;2023-08-31T04:11:10;6.55;;;2.47;;
59388;SDS011;51830;45.202;19.720;2023-08-31T04:13:36;11.52;;;2.63;;
59388;SDS011;51830;45.202;19.720;2023-08-31T04:16:02;9.63;;;2.65;;
59388;SDS011;51830;45.202;19.720;2023-08-31T04:18:29;9.60;;;2.80;;
59388;SDS011;51830;45.202;19.720;2023-08-31T04:20:55;8.55;;;2.50;;
59388;SDS011;51830;45.202;19.720;2023-08-31T04:23:24;12.75;;;2.83;;
59388;SDS011;51830;45.202;19.720;2023-08-31T04:25:50;10.45;;;2.60;;
59388;SDS011;51830;45.202;19.720;2023-08-31T04:28:18;9.93;;;2.70;;
59388;SDS011;51830;45.202;19.720;2023-08-31T04:30:44;9.10;;;2.40;;
59388;SDS011;51830;45.202;19.720;2023-08-31T04:33:11;8.57;;;2.55;;
59388;SDS011;51830;45.202;19.720;2023-08-31T04:35:37;12.13;;;3.10;;
59388;SDS011;51830;45.202;19.720;2023-08-31T04:38:03;10.88;;;2.97;;
59388;SDS011;51830;45.202;19.720;2023-08-31T04:40:30;11.90;;;2.92;;
59388;SDS011;51830;45.202;19.720;2023-08-31T04:42:56;12.18;;;2.95;;
59388;SDS011;51830;45.202;19.720;2023-08-31T04:45:23;11.82;;;2.67;;
59388;SDS011;51830;45.202;19.720;2023-08-31T04:47:50;12.07;;;3.50;;
59388;SDS011;51830;45.202;19.720;2023-08-31T04:50:16;11.30;;;3.20;;
59388;SDS011;51830;45.202;19.720;2023-08-31T04:52:43;8.85;;;2.72;;
59388;SDS011;51830;45.202;19.720;2023-08-31T04:55:09;13.73;;;3.38;;
59388;SDS011;51830;45.202;19.720;2023-08-31T04:57:38;12.27;;;3.42;;
59388;SDS011;51830;45.202;19.720;2023-08-31T05:00:05;13.57;;;3.22;;
59388;SDS011;51830;45.202;19.720;2023-08-31T05:02:34;13.02;;;3.47;;
59388;SDS011;51830;45.202;19.720;2023-08-31T05:05:00;12.68;;;3.78;;
59388;SDS011;51830;45.202;19.720;2023-08-31T05:07:28;15.57;;;4.10;;
59388;SDS011;51830;45.202;19.720;2023-08-31T05:09:54;12.60;;;3.65;;
59388;SDS011;51830;45.202;19.720;2023-08-31T05:12:20;13.63;;;3.30;;
59388;SDS011;51830;45.202;19.720;2023-08-31T05:14:46;12.60;;;3.42;;
59388;SDS011;51830;45.202;19.720;2023-08-31T05:17:12;12.43;;;3.35;;
59388;SDS011;51830;45.202;19.720;2023-08-31T05:19:39;10.52;;;2.92;;
59388;SDS011;51830;45.202;19.720;2023-08-31T05:22:05;11.68;;;3.10;;
59388;SDS011;51830;45.202;19.720;2023-08-31T05:24:31;9.45;;;2.80;;
59388;SDS011;51830;45.202;19.720;2023-08-31T05:26:58;6.22;;;2.33;;
59388;SDS011;51830;45.202;19.720;2023-08-31T05:29:24;7.82;;;2.45;;
59388;SDS011;51830;45.202;19.720;2023-08-31T05:31:51;7.85;;;2.40;;
59388;SDS011;51830;45.202;19.720;2023-08-31T05:34:20;9.45;;;2.60;;
59388;SDS011;51830;45.202;19.720;2023-08-31T05:36:46;8.95;;;2.45;;
59388;SDS011;51830;45.202;19.720;2023-08-31T05:39:13;10.52;;;2.70;;
59388;SDS011;51830;45.202;19.720;2023-08-31T05:41:41;7.88;;;2.30;;
59388;SDS011;51830;45.202;19.720;2023-08-31T05:44:08;10.20;;;2.75;;
59388;SDS011;51830;45.202;19.720;2023-08-31T05:46:34;9.60;;;2.50;;
59388;SDS011;51830;45.202;19.720;2023-08-31T05:49:00;8.10;;;2.55;;
59388;SDS011;51830;45.202;19.720;2023-08-31T05:51:26;10.27;;;2.70;;
59388;SDS011;51830;45.202;19.720;2023-08-31T05:53:52;9.10;;;2.70;;
59388;SDS011;51830;45.202;19.720;2023-08-31T05:56:19;7.63;;;2.40;;
59388;SDS011;51830;45.202;19.720;2023-08-31T05:58:45;8.55;;;2.40;;
59388;SDS011;51830;45.202;19.720;2023-08-31T06:01:12;11.70;;;2.85;;
59388;SDS011;51830;45.202;19.720;2023-08-31T06:03:38;9.63;;;2.80;;
59388;SDS011;51830;45.202;19.720;2023-08-31T06:06:04;8.30;;;2.30;;
59388;SDS011;51830;45.202;19.720;2023-08-31T06:08:30;9.15;;;2.60;;
59388;SDS011;51830;45.202;19.720;2023-08-31T06:10:57;9.65;;;2.60;;
59388;SDS011;51830;45.202;19.720;2023-08-31T06:13:23;10.57;;;3.00;;
59388;SDS011;51830;45.202;19.720;2023-08-31T06:15:50;10.63;;;2.72;;
59388;SDS011;51830;45.202;19.720;2023-08-31T06:18:16;9.77;;;3.03;;
59388;SDS011;51830;45.202;19.720;2023-08-31T06:20:42;12.60;;;3.42;;
59388;SDS011;51830;45.202;19.720;2023-08-31T06:23:09;11.52;;;3.20;;
59388;SDS011;51830;45.202;19.720;2023-08-31T06:25:35;12.95;;;3.67;;
59388;SDS011;51830;45.202;19.720;2023-08-31T06:28:05;19.25;;;7.57;;
59388;SDS011;51830;45.202;19.720;2023-08-31T06:30:33;20.58;;;8.50;;
59388;SDS011;51830;45.202;19.720;2023-08-31T06:33:00;24.92;;;10.18;;
59388;SDS011;51830;45.202;19.720;2023-08-31T06:35:26;24.90;;;10.20;;
59388;SDS011;51830;45.202;19.720;2023-08-31T06:37:52;21.95;;;8.30;;
59388;SDS011;51830;45.202;19.720;2023-08-31T06:40:21;16.02;;;5.43;;
59388;SDS011;51830;45.202;19.720;2023-08-31T06:42:47;19.05;;;6.60;;
59388;SDS011;51830;45.202;19.720;2023-08-31T06:45:13;17.83;;;5.30;;
59388;SDS011;51830;45.202;19.720;2023-08-31T06:47:40;17.92;;;4.75;;
59388;SDS011;51830;45.202;19.720;2023-08-31T06:50:06;13.57;;;4.22;;
59388;SDS011;51830;45.202;19.720;2023-08-31T06:52:32;12.30;;;3.67;;
59388;SDS011;51830;45.202;19.720;2023-08-31T06:54:59;15.05;;;3.72;;
59388;SDS011;51830;45.202;19.720;2023-08-31T06:57:25;14.20;;;3.78;;
59388;SDS011;51830;45.202;19.720;2023-08-31T06:59:52;10.45;;;3.17;;
59388;SDS011;51830;45.202;19.720;2023-08-31T07:02:18;11.30;;;2.95;;
59388;SDS011;51830;45.202;19.720;2023-08-31T07:04:44;9.27;;;2.53;;
59388;SDS011;51830;45.202;19.720;2023-08-31T07:07:11;13.70;;;3.20;;
59388;SDS011;51830;45.202;19.720;2023-08-31T07:09:43;10.30;;;3.10;;
59388;SDS011;51830;45.202;19.720;2023-08-31T07:12:10;11.27;;;3.03;;
59388;SDS011;51830;45.202;19.720;2023-08-31T07:14:36;11.40;;;3.25;;
59388;SDS011;51830;45.202;19.720;2023-08-31T07:17:05;11.10;;;2.72;;
59388;SDS011;51830;45.202;19.720;2023-08-31T07:19:36;10.70;;;2.90;;
59388;SDS011;51830;45.202;19.720;2023-08-31T07:22:03;13.45;;;2.60;;
59388;SDS011;51830;45.202;19.720;2023-08-31T07:24:30;10.75;;;2.85;;
59388;SDS011;51830;45.202;19.720;2023-08-31T07:26:56;12.15;;;3.10;;
59388;SDS011;51830;45.202;19.720;2023-08-31T07:29:22;10.70;;;3.05;;
59388;SDS011;51830;45.202;19.720;2023-08-31T07:31:48;10.65;;;2.97;;
59388;SDS011;51830;45.202;19.720;2023-08-31T07:34:14;13.05;;;3.35;;
59388;SDS011;51830;45.202;19.720;2023-08-31T07:36:41;13.75;;;3.10;;
59388;SDS011;51830;45.202;19.720;2023-08-31T07:39:07;10.48;;;2.95;;
59388;SDS011;51830;45.202;19.720;2023-08-31T07:41:33;9.82;;;3.15;;
59388;SDS011;51830;45.202;19.720;2023-08-31T07:43:59;12.27;;;3.10;;
59388;SDS011;51830;45.202;19.720;2023-08-31T07:46:25;13.43;;;3.25;;
59388;SDS011;51830;45.202;19.720;2023-08-31T07:48:52;12.05;;;3.65;;
59388;SDS011;51830;45.202;19.720;2023-08-31T07:51:18;12.65;;;3.60;;
59388;SDS011;51830;45.202;19.720;2023-08-31T07:53:48;10.55;;;3.08;;
59388;SDS011;51830;45.202;19.720;2023-08-31T07:56:14;10.88;;;3.05;;
59388;SDS011;51830;45.202;19.720;2023-08-31T07:58:41;12.02;;;3.20;;
59388;SDS011;51830;45.202;19.720;2023-08-31T08:01:07;11.45;;;3.00;;
59388;SDS011;51830;45.202;19.720;2023-08-31T08:03:33;11.25;;;2.80;;
59388;SDS011;51830;45.202;19.720;2023-08-31T08:05:59;11.95;;;3.10;;
59388;SDS011;51830;45.202;19.720;2023-08-31T08:08:25;11.63;;;3.05;;
59388;SDS011;51830;45.202;19.720;2023-08-31T08:10:55;9.75;;;2.75;;
59388;SDS011;51830;45.202;19.720;2023-08-31T08:13:21;8.27;;;2.50;;
59388;SDS011;51830;45.202;19.720;2023-08-31T08:15:47;9.88;;;2.40;;
59388;SDS011;51830;45.202;19.720;2023-08-31T08:18:13;9.63;;;2.72;;
59388;SDS011;51830;45.202;19.720;2023-08-31T08:20:39;10.07;;;2.92;;
59388;SDS011;51830;45.202;19.720;2023-08-31T08:23:06;13.10;;;2.95;;
59388;SDS011;51830;45.202;19.720;2023-08-31T08:25:32;11.88;;;3.30;;
59388;SDS011;51830;45.202;19.720;2023-08-31T08:27:59;11.23;;;3.15;;
59388;SDS011;51830;45.202;19.720;2023-08-31T08:30:25;9.65;;;2.63;;
59388;SDS011;51830;45.202;19.720;2023-08-31T08:32:51;12.93;;;3.30;;
59388;SDS011;51830;45.202;19.720;2023-08-31T08:35:17;12.27;;;3.22;;
59388;SDS011;51830;45.202;19.720;2023-08-31T08:37:44;10.88;;;2.83;;
59388;SDS011;51830;45.202;19.720;2023-08-31T08:40:10;12.63;;;3.15;;
59388;SDS011;51830;45.202;19.720;2023-08-31T08:42:40;11.40;;;2.80;;
59388;SDS011;51830;45.202;19.720;2023-08-31T08:45:13;9.50;;;2.72;;
59388;SDS011;51830;45.202;19.720;2023-08-31T08:47:40;10.00;;;2.78;;
59388;SDS011;51830;45.202;19.720;2023-08-31T08:50:06;8.85;;;2.67;;
59388;SDS011;51830;45.202;19.720;2023-08-31T08:52:33;10.23;;;2.70;;
59388;SDS011;51830;45.202;19.720;2023-08-31T08:55:00;10.30;;;2.70;;
59388;SDS011;51830;45.202;19.720;2023-08-31T08:57:28;10.88;;;2.65;;
59388;SDS011;51830;45.202;19.720;2023-08-31T08:59:54;9.35;;;2.80;;
59388;SDS011;51830;45.202;19.720;2023-08-31T09:02:20;9.88;;;2.67;;
59388;SDS011;51830;45.202;19.720;2023-08-31T09:04:47;10.23;;;2.63;;
59388;SDS011;51830;45.202;19.720;2023-08-31T09:07:13;12.13;;;2.88;;
59388;SDS011;51830;45.202;19.720;2023-08-31T09:09:50;7.20;;;2.38;;
59388;SDS011;51830;45.202;19.720;2023-08-31T09:12:16;10.98;;;2.50;;
59388;SDS011;51830;45.202;19.720;2023-08-31T09:14:42;8.30;;;2.63;;
59388;SDS011;51830;45.202;19.720;2023-08-31T09:17:09;8.43;;;2.53;;
59388;SDS011;51830;45.202;19.720;2023-08-31T09:19:35;10.57;;;2.50;;
59388;SDS011;51830;45.202;19.720;2023-08-31T09:22:01;9.70;;;2.60;;
59388;SDS011;51830;45.202;19.720;2023-08-31T09:24:28;9.18;;;2.45;;
59388;SDS011;51830;45.202;19.720;2023-08-31T09:26:56;7.75;;;2.20;;
59388;SDS011;51830;45.202;19.720;2023-08-31T09:29:22;9.73;;;2.83;;
59388;SDS011;51830;45.202;19.720;2023-08-31T09:31:49;9.95;;;2.80;;
59388;SDS011;51830;45.202;19.720;2023-08-31T09:34:16;11.13;;;2.90;;
59388;SDS011;51830;45.202;19.720;2023-08-31T09:36:42;12.77;;;3.00;;
59388;SDS011;51830;45.202;19.720;2023-08-31T09:39:09;9.60;;;2.67;;
59388;SDS011;51830;45.202;19.720;2023-08-31T09:41:51;9.15;;;2.60;;
59388;SDS011;51830;45.202;19.720;2023-08-31T09:44:18;7.25;;;2.20;;
59388;SDS011;51830;45.202;19.720;2023-08-31T09:46:45;10.73;;;2.55;;
59388;SDS011;51830;45.202;19.720;2023-08-31T09:49:13;8.63;;;2.25;;
59388;SDS011;51830;45.202;19.720;2023-08-31T09:51:41;9.68;;;2.60;;
59388;SDS011;51830;45.202;19.720;2023-08-31T09:54:09;9.60;;;2.70;;
59388;SDS011;51830;45.202;19.720;2023-08-31T09:56:38;9.00;;;2.60;;
59388;SDS011;51830;45.202;19.720;2023-08-31T09:59:06;10.50;;;3.08;;
59388;SDS011;51830;45.202;19.720;2023-08-31T10:01:32;12.55;;;3.45;;
59388;SDS011;51830;45.202;19.720;2023-08-31T10:03:59;15.30;;;3.63;;
59388;SDS011;51830;45.202;19.720;2023-08-31T10:06:25;10.23;;;3.03;;
59388;SDS011;51830;45.202;19.720;2023-08-31T10:08:53;11.90;;;3.22;;
59388;SDS011;51830;45.202;19.720;2023-08-31T10:11:19;11.38;;;2.97;;
59388;SDS011;51830;45.202;19.720;2023-08-31T10:13:47;11.82;;;3.45;;
59388;SDS011;51830;45.202;19.720;2023-08-31T10:16:14;12.57;;;3.30;;
59388;SDS011;51830;45.202;19.720;2023-08-31T10:18:42;12.65;;;3.75;;
59388;SDS011;51830;45.202;19.720;2023-08-31T10:21:08;11.77;;;3.70;;
59388;SDS011;51830;45.202;19.720;2023-08-31T10:23:34;12.18;;;3.97;;
59388;SDS011;51830;45.202;19.720;2023-08-31T10:26:01;13.80;;;4.30;;
59388;SDS011;51830;45.202;19.720;2023-08-31T10:28:28;13.55;;;4.40;;
59388;SDS011;51830;45.202;19.720;2023-08-31T10:31:04;15.07;;;4.40;;
59388;SDS011;51830;45.202;19.720;2023-08-31T10:33:31;15.27;;;4.50;;
59388;SDS011;51830;45.202;19.720;2023-08-31T10:35:58;14.63;;;4.60;;
59388;SDS011;51830;45.202;19.720;2023-08-31T10:38:28;14.60;;;4.82;;
59388;SDS011;51830;45.202;19.720;2023-08-31T10:41:17;13.75;;;4.50;;
59388;SDS011;51830;45.202;19.720;2023-08-31T10:46:24;13.95;;;4.60;;
59388;SDS011;51830;45.202;19.720;2023-08-31T10:51:23;15.23;;;5.07;;
59388;SDS011;51830;45.202;19.720;2023-08-31T10:53:49;14.57;;;5.30;;
59388;SDS011;51830;45.202;19.720;2023-08-31T10:56:16;14.77;;;5.20;;
59388;SDS011;51830;45.202;19.720;2023-08-31T10:58:42;15.63;;;5.45;;
59388;SDS011;51830;45.202;19.720;2023-08-31T11:01:09;15.80;;;5.63;;
59388;SDS011;51830;45.202;19.720;2023-08-31T11:03:57;15.13;;;5.10;;
59388;SDS011;51830;45.202;19.720;2023-08-31T11:06:23;15.68;;;5.60;;
59388;SDS011;51830;45.202;19.720;2023-08-31T11:08:53;14.35;;;4.88;;
59388;SDS011;51830;45.202;19.720;2023-08-31T11:11:19;15.93;;;4.60;;
59388;SDS011;51830;45.202;19.720;2023-08-31T11:13:46;14.32;;;4.90;;
59388;SDS011;51830;45.202;19.720;2023-08-31T11:16:12;14.50;;;4.65;;
59388;SDS011;51830;45.202;19.720;2023-08-31T11:18:38;15.00;;;5.05;;
59388;SDS011;51830;45.202;19.720;2023-08-31T11:21:04;15.25;;;4.80;;
59388;SDS011;51830;45.202;19.720;2023-08-31T11:23:31;14.23;;;4.90;;
59388;SDS011;51830;45.202;19.720;2023-08-31T11:25:58;13.93;;;4.38;;
59388;SDS011;51830;45.202;19.720;2023-08-31T11:28:24;13.30;;;4.20;;
59388;SDS011;51830;45.202;19.720;2023-08-31T11:30:51;15.45;;;5.18;;
59388;SDS011;51830;45.202;19.720;2023-08-31T11:33:17;14.25;;;5.18;;
59388;SDS011;51830;45.202;19.720;2023-08-31T11:35:43;15.30;;;5.40;;
59388;SDS011;51830;45.202;19.720;2023-08-31T11:38:10;15.73;;;5.25;;
59388;SDS011;51830;45.202;19.720;2023-08-31T11:40:38;15.32;;;4.88;;
59388;SDS011;51830;45.202;19.720;2023-08-31T11:43:04;12.80;;;4.38;;
59388;SDS011;51830;45.202;19.720;2023-08-31T11:45:34;14.13;;;4.72;;
59388;SDS011;51830;45.202;19.720;2023-08-31T11:48:02;14.82;;;5.00;;
59388;SDS011;51830;45.202;19.720;2023-08-31T11:50:28;14.45;;;4.90;;
59388;SDS011;51830;45.202;19.720;2023-08-31T11:52:54;13.70;;;4.72;;
59388;SDS011;51830;45.202;19.720;2023-08-31T11:55:21;14.43;;;4.55;;
59388;SDS011;51830;45.202;19.720;2023-08-31T11:57:51;14.35;;;4.50;;
59388;SDS011;51830;45.202;19.720;2023-08-31T12:00:19;15.02;;;5.25;;
59388;SDS011;51830;45.202;19.720;2023-08-31T12:02:46;14.48;;;5.05;;
59388;SDS011;51830;45.202;19.720;2023-08-31T12:05:19;13.05;;;4.45;;
59388;SDS011;51830;45.202;19.720;2023-08-31T12:07:45;14.20;;;4.57;;
59388;SDS011;51830;45.202;19.720;2023-08-31T12:10:14;14.40;;;5.10;;
59388;SDS011;51830;45.202;19.720;2023-08-31T12:12:40;14.88;;;5.32;;
59388;SDS011;51830;45.202;19.720;2023-08-31T12:15:06;14.25;;;4.80;;
59388;SDS011;51830;45.202;19.720;2023-08-31T12:17:36;13.93;;;4.90;;
59388;SDS011;51830;45.202;19.720;2023-08-31T12:20:03;15.02;;;5.43;;
59388;SDS011;51830;45.202;19.720;2023-08-31T12:22:30;15.30;;;5.75;;
59388;SDS011;51830;45.202;19.720;2023-08-31T12:24:56;15.70;;;5.30;;
59388;SDS011;51830;45.202;19.720;2023-08-31T12:27:22;15.23;;;5.50;;
59388;SDS011;51830;45.202;19.720;2023-08-31T12:29:48;14.05;;;5.13;;
59388;SDS011;51830;45.202;19.720;2023-08-31T12:32:15;15.10;;;5.20;;
59388;SDS011;51830;45.202;19.720;2023-08-31T12:34:44;15.07;;;5.63;;
59388;SDS011;51830;45.202;19.720;2023-08-31T12:37:10;14.32;;;5.35;;
59388;SDS011;51830;45.202;19.720;2023-08-31T12:39:37;15.10;;;5.50;;
59388;SDS011;51830;45.202;19.720;2023-08-31T12:42:03;14.82;;;5.22;;
59388;SDS011;51830;45.202;19.720;2023-08-31T12:44:29;15.10;;;5.20;;
59388;SDS011;51830;45.202;19.720;2023-08-31T12:46:56;15.15;;;5.18;;
59388;SDS011;51830;45.202;19.720;2023-08-31T12:49:22;15.32;;;5.55;;
59388;SDS011;51830;45.202;19.720;2023-08-31T12:51:48;13.57;;;4.90;;
59388;SDS011;51830;45.202;19.720;2023-08-31T12:54:18;14.38;;;4.90;;
59388;SDS011;51830;45.202;19.720;2023-08-31T12:56:45;14.13;;;4.72;;
59388;SDS011;51830;45.202;19.720;2023-08-31T12:59:12;14.75;;;4.45;;
59388;SDS011;51830;45.202;19.720;2023-08-31T13:01:39;15.18;;;4.72;;
59388;SDS011;51830;45.202;19.720;2023-08-31T13:04:05;13.63;;;3.97;;
59388;SDS011;51830;45.202;19.720;2023-08-31T13:06:32;13.80;;;3.67;;
59388;SDS011;51830;45.202;19.720;2023-08-31T13:08:58;13.55;;;3.72;;
59388;SDS011;51830;45.202;19.720;2023-08-31T13:11:24;12.48;;;3.72;;
59388;SDS011;51830;45.202;19.720;2023-08-31T13:13:51;12.85;;;3.72;;
59388;SDS011;51830;45.202;19.720;2023-08-31T13:16:17;13.70;;;3.92;;
59388;SDS011;51830;45.202;19.720;2023-08-31T13:18:43;13.18;;;3.30;;
59388;SDS011;51830;45.202;19.720;2023-08-31T13:21:10;13.75;;;3.58;;
59388;SDS011;51830;45.202;19.720;2023-08-31T13:23:36;10.95;;;3.15;;
59388;SDS011;51830;45.202;19.720;2023-08-31T13:26:02;10.55;;;3.13;;
59388;SDS011;51830;45.202;19.720;2023-08-31T13:28:28;11.13;;;3.50;;
59388;SDS011;51830;45.202;19.720;2023-08-31T13:30:55;12.35;;;3.60;;
59388;SDS011;51830;45.202;19.720;2023-08-31T13:33:23;12.15;;;3.30;;
59388;SDS011;51830;45.202;19.720;2023-08-31T13:35:49;9.32;;;2.92;;
59388;SDS011;51830;45.202;19.720;2023-08-31T13:38:15;11.27;;;3.15;;
59388;SDS011;51830;45.202;19.720;2023-08-31T13:40:43;13.27;;;3.42;;
59388;SDS011;51830;45.202;19.720;2023-08-31T13:43:09;10.80;;;3.30;;
59388;SDS011;51830;45.202;19.720;2023-08-31T13:45:35;12.02;;;3.70;;
59388;SDS011;51830;45.202;19.720;2023-08-31T13:48:02;13.80;;;3.42;;
59388;SDS011;51830;45.202;19.720;2023-08-31T13:50:29;13.45;;;3.42;;
59388;SDS011;51830;45.202;19.720;2023-08-31T13:52:55;11.95;;;3.25;;
59388;SDS011;51830;45.202;19.720;2023-08-31T13:55:22;10.50;;;3.13;;
59388;SDS011;51830;45.202;19.720;2023-08-31T13:57:48;10.98;;;2.92;;
59388;SDS011;51830;45.202;19.720;2023-08-31T14:00:15;11.20;;;2.85;;
59388;SDS011;51830;45.202;19.720;2023-08-31T14:02:42;11.50;;;2.78;;
59388;SDS011;51830;45.202;19.720;2023-08-31T14:05:11;9.73;;;2.60;;
59388;SDS011;51830;45.202;19.720;2023-08-31T14:07:39;9.93;;;2.83;;
59388;SDS011;51830;45.202;19.720;2023-08-31T14:10:06;8.90;;;2.58;;
59388;SDS011;51830;45.202;19.720;2023-08-31T14:12:33;8.75;;;2.63;;
59388;SDS011;51830;45.202;19.720;2023-08-31T14:14:59;10.07;;;2.70;;
59388;SDS011;51830;45.202;19.720;2023-08-31T14:17:29;10.32;;;2.70;;
59388;SDS011;51830;45.202;19.720;2023-08-31T14:19:58;8.98;;;2.75;;
59388;SDS011;51830;45.202;19.720;2023-08-31T14:22:24;14.30;;;2.80;;
59388;SDS011;51830;45.202;19.720;2023-08-31T14:24:50;9.48;;;2.83;;
59388;SDS011;51830;45.202;19.720;2023-08-31T14:27:16;8.70;;;2.65;;
59388;SDS011;51830;45.202;19.720;2023-08-31T14:29:43;8.93;;;2.60;;
59388;SDS011;51830;45.202;19.720;2023-08-31T14:32:09;7.55;;;2.30;;
59388;SDS011;51830;45.202;19.720;2023-08-31T14:34:35;7.43;;;2.50;;
59388;SDS011;51830;45.202;19.720;2023-08-31T14:37:01;7.68;;;2.30;;